sensor_id;sensor_type;location;lat;lon;timestamp;temperature;humidity
14006;DHT22;7078;51.542;7.314;2023-07-31T00:00:42;15.60;99.90
14006;DHT22;7078;51.542;7.314;2023-07-31T00:03:08;15.60;99.90
14006;DHT22;7078;51.542;7.314;2023-07-31T00:05:33;15.60;99.90
14006;DHT22;7078;51.542;7.314;2023-07-31T00:07:59;15.60;99.90
14006;DHT22;7078;51.542;7.314;2023-07-31T00:10:24;15.50;99.90
14006;DHT22;7078;51.542;7.314;2023-07-31T00:12:50;15.50;99.90
14006;DHT22;7078;51.542;7.314;2023-07-31T00:15:15;15.50;99.90
14006;DHT22;7078;51.542;7.314;2023-07-31T00:17:41;15.50;99.90
14006;DHT22;7078;51.542;7.314;2023-07-31T00:20:07;15.50;99.90
14006;DHT22;7078;51.542;7.314;2023-07-31T00:22:33;15.50;99.90
14006;DHT22;7078;51.542;7.314;2023-07-31T00:24:58;15.50;99.90
14006;DHT22;7078;51.542;7.314;2023-07-31T00:27:25;15.60;99.90
14006;DHT22;7078;51.542;7.314;2023-07-31T00:29:50;15.60;99.90
14006;DHT22;7078;51.542;7.314;2023-07-31T00:32:16;15.80;99.90
14006;DHT22;7078;51.542;7.314;2023-07-31T00:34:41;15.80;99.90
14006;DHT22;7078;51.542;7.314;2023-07-31T00:37:07;15.80;99.90
14006;DHT22;7078;51.542;7.314;2023-07-31T00:39:34;15.90;99.90
14006;DHT22;7078;51.542;7.314;2023-07-31T00:42:00;16.00;99.90
14006;DHT22;7078;51.542;7.314;2023-07-31T00:44:25;15.90;99.90
14006;DHT22;7078;51.542;7.314;2023-07-31T00:46:51;16.00;99.90
14006;DHT22;7078;51.542;7.314;2023-07-31T00:49:17;16.00;99.90
14006;DHT22;7078;51.542;7.314;2023-07-31T00:51:43;16.00;99.90
14006;DHT22;7078;51.542;7.314;2023-07-31T00:54:09;16.00;99.90
14006;DHT22;7078;51.542;7.314;2023-07-31T00:56:35;16.00;99.90
14006;DHT22;7078;51.542;7.314;2023-07-31T00:59:00;16.00;99.90
14006;DHT22;7078;51.542;7.314;2023-07-31T01:01:26;16.00;99.90
14006;DHT22;7078;51.542;7.314;2023-07-31T01:03:52;16.00;99.90
14006;DHT22;7078;51.542;7.314;2023-07-31T01:06:31;15.90;99.90
14006;DHT22;7078;51.542;7.314;2023-07-31T01:12:01;16.00;99.90
14006;DHT22;7078;51.542;7.314;2023-07-31T01:14:27;16.00;99.90
14006;DHT22;7078;51.542;7.314;2023-07-31T01:16:54;16.00;99.90
14006;DHT22;7078;51.542;7.314;2023-07-31T01:19:22;16.00;99.90
14006;DHT22;7078;51.542;7.314;2023-07-31T01:22:11;16.00;99.90
14006;DHT22;7078;51.542;7.314;2023-07-31T01:27:41;16.10;99.90
14006;DHT22;7078;51.542;7.314;2023-07-31T01:30:09;16.10;99.90
14006;DHT22;7078;51.542;7.314;2023-07-31T01:32:40;16.10;99.90
14006;DHT22;7078;51.542;7.314;2023-07-31T01:35:07;16.10;99.90
14006;DHT22;7078;51.542;7.314;2023-07-31T01:37:33;16.10;99.90
14006;DHT22;7078;51.542;7.314;2023-07-31T01:39:59;16.10;99.90
14006;DHT22;7078;51.542;7.314;2023-07-31T01:42:25;15.90;99.90
14006;DHT22;7078;51.542;7.314;2023-07-31T01:44:50;16.10;99.90
14006;DHT22;7078;51.542;7.314;2023-07-31T01:47:16;16.00;99.90
14006;DHT22;7078;51.542;7.314;2023-07-31T01:49:41;16.10;99.90
14006;DHT22;7078;51.542;7.314;2023-07-31T01:52:07;16.10;99.90
14006;DHT22;7078;51.542;7.314;2023-07-31T01:54:32;16.10;99.90
14006;DHT22;7078;51.542;7.314;2023-07-31T01:56:58;16.10;99.90
14006;DHT22;7078;51.542;7.314;2023-07-31T01:59:24;16.10;99.90
14006;DHT22;7078;51.542;7.314;2023-07-31T02:01:49;16.20;99.90
14006;DHT22;7078;51.542;7.314;2023-07-31T02:04:15;16.00;99.90
14006;DHT22;7078;51.542;7.314;2023-07-31T02:06:41;16.10;99.90
14006;DHT22;7078;51.542;7.314;2023-07-31T02:09:06;16.00;99.90
14006;DHT22;7078;51.542;7.314;2023-07-31T02:11:32;16.00;99.90
14006;DHT22;7078;51.542;7.314;2023-07-31T02:13:57;16.10;99.90
14006;DHT22;7078;51.542;7.314;2023-07-31T02:16:23;16.10;99.90
14006;DHT22;7078;51.542;7.314;2023-07-31T02:18:48;16.10;99.90
14006;DHT22;7078;51.542;7.314;2023-07-31T02:21:14;16.10;99.90
14006;DHT22;7078;51.542;7.314;2023-07-31T02:23:39;16.10;99.90
14006;DHT22;7078;51.542;7.314;2023-07-31T02:26:05;16.10;99.90
14006;DHT22;7078;51.542;7.314;2023-07-31T02:28:30;16.10;99.90
14006;DHT22;7078;51.542;7.314;2023-07-31T02:30:56;16.10;99.90
14006;DHT22;7078;51.542;7.314;2023-07-31T02:33:21;16.00;99.90
14006;DHT22;7078;51.542;7.314;2023-07-31T02:35:47;16.10;99.90
14006;DHT22;7078;51.542;7.314;2023-07-31T02:38:12;16.00;99.90
14006;DHT22;7078;51.542;7.314;2023-07-31T02:40:39;16.00;99.90
14006;DHT22;7078;51.542;7.314;2023-07-31T02:43:06;16.10;99.90
14006;DHT22;7078;51.542;7.314;2023-07-31T02:45:32;16.10;99.90
14006;DHT22;7078;51.542;7.314;2023-07-31T02:47:58;16.10;99.90
14006;DHT22;7078;51.542;7.314;2023-07-31T02:50:23;16.10;99.90
14006;DHT22;7078;51.542;7.314;2023-07-31T02:52:49;16.10;99.90
14006;DHT22;7078;51.542;7.314;2023-07-31T02:55:14;16.10;99.90
14006;DHT22;7078;51.542;7.314;2023-07-31T02:57:40;16.10;99.90
14006;DHT22;7078;51.542;7.314;2023-07-31T03:00:06;16.10;99.90
14006;DHT22;7078;51.542;7.314;2023-07-31T03:02:32;16.10;99.90
14006;DHT22;7078;51.542;7.314;2023-07-31T03:04:57;16.10;99.90
14006;DHT22;7078;51.542;7.314;2023-07-31T03:07:23;16.10;99.90
14006;DHT22;7078;51.542;7.314;2023-07-31T03:09:49;16.00;99.90
14006;DHT22;7078;51.542;7.314;2023-07-31T03:12:14;16.10;99.90
14006;DHT22;7078;51.542;7.314;2023-07-31T03:14:40;16.10;99.90
14006;DHT22;7078;51.542;7.314;2023-07-31T03:17:06;16.10;99.90
14006;DHT22;7078;51.542;7.314;2023-07-31T03:19:32;16.10;99.90
14006;DHT22;7078;51.542;7.314;2023-07-31T03:21:58;16.10;99.90
14006;DHT22;7078;51.542;7.314;2023-07-31T03:24:24;16.10;99.90
14006;DHT22;7078;51.542;7.314;2023-07-31T03:26:50;16.00;99.90
14006;DHT22;7078;51.542;7.314;2023-07-31T03:29:16;16.10;99.90
14006;DHT22;7078;51.542;7.314;2023-07-31T03:31:41;16.10;99.90
14006;DHT22;7078;51.542;7.314;2023-07-31T03:34:07;16.10;99.90
14006;DHT22;7078;51.542;7.314;2023-07-31T03:36:32;16.20;99.90
14006;DHT22;7078;51.542;7.314;2023-07-31T03:38:58;16.20;99.90
14006;DHT22;7078;51.542;7.314;2023-07-31T03:41:24;16.20;99.90
14006;DHT22;7078;51.542;7.314;2023-07-31T03:43:51;16.20;99.90
14006;DHT22;7078;51.542;7.314;2023-07-31T03:46:17;16.20;99.90
14006;DHT22;7078;51.542;7.314;2023-07-31T03:48:43;16.20;99.90
14006;DHT22;7078;51.542;7.314;2023-07-31T03:51:08;16.20;99.90
14006;DHT22;7078;51.542;7.314;2023-07-31T03:53:34;16.20;99.90
14006;DHT22;7078;51.542;7.314;2023-07-31T03:55:59;16.20;99.90
14006;DHT22;7078;51.542;7.314;2023-07-31T03:58:25;16.20;99.90
14006;DHT22;7078;51.542;7.314;2023-07-31T04:00:50;16.30;99.90
14006;DHT22;7078;51.542;7.314;2023-07-31T04:03:16;16.30;99.90
14006;DHT22;7078;51.542;7.314;2023-07-31T04:05:41;16.30;99.90
14006;DHT22;7078;51.542;7.314;2023-07-31T04:08:08;16.30;99.90
14006;DHT22;7078;51.542;7.314;2023-07-31T04:10:34;16.30;99.90
14006;DHT22;7078;51.542;7.314;2023-07-31T04:13:00;16.30;99.90
14006;DHT22;7078;51.542;7.314;2023-07-31T04:15:26;16.30;99.90
14006;DHT22;7078;51.542;7.314;2023-07-31T04:17:51;16.40;99.90
14006;DHT22;7078;51.542;7.314;2023-07-31T04:20:17;16.40;99.90
14006;DHT22;7078;51.542;7.314;2023-07-31T04:22:42;16.40;99.90
14006;DHT22;7078;51.542;7.314;2023-07-31T04:25:08;16.40;99.90
14006;DHT22;7078;51.542;7.314;2023-07-31T04:27:34;16.50;99.90
14006;DHT22;7078;51.542;7.314;2023-07-31T04:29:59;16.50;99.90
14006;DHT22;7078;51.542;7.314;2023-07-31T04:32:25;16.50;99.90
14006;DHT22;7078;51.542;7.314;2023-07-31T04:34:50;16.50;99.90
14006;DHT22;7078;51.542;7.314;2023-07-31T04:37:16;16.50;99.90
14006;DHT22;7078;51.542;7.314;2023-07-31T04:39:41;16.60;99.90
14006;DHT22;7078;51.542;7.314;2023-07-31T04:42:07;16.60;99.90
14006;DHT22;7078;51.542;7.314;2023-07-31T04:44:32;16.70;99.90
14006;DHT22;7078;51.542;7.314;2023-07-31T04:46:58;16.70;99.90
14006;DHT22;7078;51.542;7.314;2023-07-31T04:49:23;16.70;99.90
14006;DHT22;7078;51.542;7.314;2023-07-31T04:51:49;16.70;99.90
14006;DHT22;7078;51.542;7.314;2023-07-31T04:54:14;16.70;99.90
14006;DHT22;7078;51.542;7.314;2023-07-31T04:56:40;16.70;99.90
14006;DHT22;7078;51.542;7.314;2023-07-31T04:59:06;16.70;99.90
14006;DHT22;7078;51.542;7.314;2023-07-31T05:01:32;16.70;99.90
14006;DHT22;7078;51.542;7.314;2023-07-31T05:03:57;16.70;99.90
14006;DHT22;7078;51.542;7.314;2023-07-31T05:06:23;16.70;99.90
14006;DHT22;7078;51.542;7.314;2023-07-31T05:08:48;16.70;99.90
14006;DHT22;7078;51.542;7.314;2023-07-31T05:11:14;16.60;99.90
14006;DHT22;7078;51.542;7.314;2023-07-31T05:13:39;16.60;99.90
14006;DHT22;7078;51.542;7.314;2023-07-31T05:16:05;16.60;99.90
14006;DHT22;7078;51.542;7.314;2023-07-31T05:18:30;16.60;99.90
14006;DHT22;7078;51.542;7.314;2023-07-31T05:20:56;16.60;99.90
14006;DHT22;7078;51.542;7.314;2023-07-31T05:23:21;16.60;99.90
14006;DHT22;7078;51.542;7.314;2023-07-31T05:25:47;16.60;99.90
14006;DHT22;7078;51.542;7.314;2023-07-31T05:28:13;16.60;99.90
14006;DHT22;7078;51.542;7.314;2023-07-31T05:30:38;16.70;99.90
14006;DHT22;7078;51.542;7.314;2023-07-31T05:33:04;16.60;99.90
14006;DHT22;7078;51.542;7.314;2023-07-31T05:35:29;16.70;99.90
14006;DHT22;7078;51.542;7.314;2023-07-31T05:37:55;16.70;99.90
14006;DHT22;7078;51.542;7.314;2023-07-31T05:40:20;16.60;99.90
14006;DHT22;7078;51.542;7.314;2023-07-31T05:42:47;16.60;99.90
14006;DHT22;7078;51.542;7.314;2023-07-31T05:45:13;16.60;99.90
14006;DHT22;7078;51.542;7.314;2023-07-31T05:47:39;16.70;99.90
14006;DHT22;7078;51.542;7.314;2023-07-31T05:50:05;16.70;99.90
14006;DHT22;7078;51.542;7.314;2023-07-31T05:52:30;16.70;99.90
14006;DHT22;7078;51.542;7.314;2023-07-31T05:54:56;16.70;99.90
14006;DHT22;7078;51.542;7.314;2023-07-31T05:57:22;16.80;99.90
14006;DHT22;7078;51.542;7.314;2023-07-31T05:59:48;16.80;99.90
14006;DHT22;7078;51.542;7.314;2023-07-31T06:02:13;16.80;99.90
14006;DHT22;7078;51.542;7.314;2023-07-31T06:04:39;16.90;99.90
14006;DHT22;7078;51.542;7.314;2023-07-31T06:07:05;16.90;99.90
14006;DHT22;7078;51.542;7.314;2023-07-31T06:09:30;16.90;99.90
14006;DHT22;7078;51.542;7.314;2023-07-31T06:11:56;16.90;99.90
14006;DHT22;7078;51.542;7.314;2023-07-31T06:14:22;16.80;99.90
14006;DHT22;7078;51.542;7.314;2023-07-31T06:16:47;16.80;99.90
14006;DHT22;7078;51.542;7.314;2023-07-31T06:19:13;16.80;99.90
14006;DHT22;7078;51.542;7.314;2023-07-31T06:21:39;16.80;99.90
14006;DHT22;7078;51.542;7.314;2023-07-31T06:24:05;16.70;99.90
14006;DHT22;7078;51.542;7.314;2023-07-31T06:26:31;16.70;99.90
14006;DHT22;7078;51.542;7.314;2023-07-31T06:28:57;16.80;99.90
14006;DHT22;7078;51.542;7.314;2023-07-31T06:31:22;16.80;99.90
14006;DHT22;7078;51.542;7.314;2023-07-31T06:33:49;16.80;99.90
14006;DHT22;7078;51.542;7.314;2023-07-31T06:36:15;16.80;99.90
14006;DHT22;7078;51.542;7.314;2023-07-31T06:38:40;16.90;99.90
14006;DHT22;7078;51.542;7.314;2023-07-31T06:41:06;16.80;99.90
14006;DHT22;7078;51.542;7.314;2023-07-31T06:43:31;16.80;99.90
14006;DHT22;7078;51.542;7.314;2023-07-31T06:45:57;16.90;99.90
14006;DHT22;7078;51.542;7.314;2023-07-31T06:48:22;16.80;99.90
14006;DHT22;7078;51.542;7.314;2023-07-31T06:50:48;16.70;99.90
14006;DHT22;7078;51.542;7.314;2023-07-31T06:53:13;16.90;99.90
14006;DHT22;7078;51.542;7.314;2023-07-31T06:55:39;16.90;99.90
14006;DHT22;7078;51.542;7.314;2023-07-31T06:58:05;17.00;99.90
14006;DHT22;7078;51.542;7.314;2023-07-31T07:00:30;17.00;99.90
14006;DHT22;7078;51.542;7.314;2023-07-31T07:02:56;17.00;99.90
14006;DHT22;7078;51.542;7.314;2023-07-31T07:05:21;17.10;99.90
14006;DHT22;7078;51.542;7.314;2023-07-31T07:07:49;17.10;99.90
14006;DHT22;7078;51.542;7.314;2023-07-31T07:10:14;17.00;99.90
14006;DHT22;7078;51.542;7.314;2023-07-31T07:12:40;17.00;99.90
14006;DHT22;7078;51.542;7.314;2023-07-31T07:15:08;17.10;99.90
14006;DHT22;7078;51.542;7.314;2023-07-31T07:17:33;17.10;99.90
14006;DHT22;7078;51.542;7.314;2023-07-31T07:19:59;17.20;99.90
14006;DHT22;7078;51.542;7.314;2023-07-31T07:22:26;17.20;99.90
14006;DHT22;7078;51.542;7.314;2023-07-31T07:24:52;17.20;99.90
14006;DHT22;7078;51.542;7.314;2023-07-31T07:27:18;17.20;99.90
14006;DHT22;7078;51.542;7.314;2023-07-31T07:29:44;17.20;99.90
14006;DHT22;7078;51.542;7.314;2023-07-31T07:32:09;17.20;99.90
14006;DHT22;7078;51.542;7.314;2023-07-31T07:34:35;17.10;99.90
14006;DHT22;7078;51.542;7.314;2023-07-31T07:37:00;17.10;99.90
14006;DHT22;7078;51.542;7.314;2023-07-31T07:39:26;17.00;99.90
14006;DHT22;7078;51.542;7.314;2023-07-31T07:41:53;17.10;99.90
14006;DHT22;7078;51.542;7.314;2023-07-31T07:44:19;17.10;99.90
14006;DHT22;7078;51.542;7.314;2023-07-31T07:46:45;17.10;99.90
14006;DHT22;7078;51.542;7.314;2023-07-31T07:49:10;17.10;99.90
14006;DHT22;7078;51.542;7.314;2023-07-31T07:51:36;17.20;99.90
14006;DHT22;7078;51.542;7.314;2023-07-31T07:54:02;17.10;99.90
14006;DHT22;7078;51.542;7.314;2023-07-31T07:56:27;17.20;99.90
14006;DHT22;7078;51.542;7.314;2023-07-31T07:58:54;17.10;99.90
14006;DHT22;7078;51.542;7.314;2023-07-31T08:01:19;17.10;99.90
14006;DHT22;7078;51.542;7.314;2023-07-31T08:03:46;17.10;99.90
14006;DHT22;7078;51.542;7.314;2023-07-31T08:06:11;16.90;99.90
14006;DHT22;7078;51.542;7.314;2023-07-31T08:08:37;17.20;99.90
14006;DHT22;7078;51.542;7.314;2023-07-31T08:11:03;17.00;99.90
14006;DHT22;7078;51.542;7.314;2023-07-31T08:13:29;17.00;99.90
14006;DHT22;7078;51.542;7.314;2023-07-31T08:15:54;17.00;99.90
14006;DHT22;7078;51.542;7.314;2023-07-31T08:18:20;17.00;99.90
14006;DHT22;7078;51.542;7.314;2023-07-31T08:20:46;17.00;99.90
14006;DHT22;7078;51.542;7.314;2023-07-31T08:23:11;17.10;99.90
14006;DHT22;7078;51.542;7.314;2023-07-31T08:25:37;17.00;99.90
14006;DHT22;7078;51.542;7.314;2023-07-31T08:28:04;17.00;99.90
14006;DHT22;7078;51.542;7.314;2023-07-31T08:30:30;17.00;99.90
14006;DHT22;7078;51.542;7.314;2023-07-31T08:32:56;16.90;99.90
14006;DHT22;7078;51.542;7.314;2023-07-31T08:35:22;16.90;99.90
14006;DHT22;7078;51.542;7.314;2023-07-31T08:37:48;17.00;99.90
14006;DHT22;7078;51.542;7.314;2023-07-31T08:40:13;16.90;99.90
14006;DHT22;7078;51.542;7.314;2023-07-31T08:42:57;17.00;99.90
14006;DHT22;7078;51.542;7.314;2023-07-31T08:45:27;17.10;99.90
14006;DHT22;7078;51.542;7.314;2023-07-31T08:47:53;17.10;99.90
14006;DHT22;7078;51.542;7.314;2023-07-31T08:50:20;17.10;99.90
14006;DHT22;7078;51.542;7.314;2023-07-31T08:52:46;17.20;99.90
14006;DHT22;7078;51.542;7.314;2023-07-31T08:55:12;17.30;99.90
14006;DHT22;7078;51.542;7.314;2023-07-31T08:57:38;17.30;99.90
14006;DHT22;7078;51.542;7.314;2023-07-31T09:00:06;17.20;99.90
14006;DHT22;7078;51.542;7.314;2023-07-31T09:05:11;17.10;99.90
14006;DHT22;7078;51.542;7.314;2023-07-31T09:07:37;17.20;99.90
14006;DHT22;7078;51.542;7.314;2023-07-31T09:10:03;17.20;99.90
14006;DHT22;7078;51.542;7.314;2023-07-31T09:12:29;17.20;99.90
14006;DHT22;7078;51.542;7.314;2023-07-31T09:14:56;17.10;99.90
14006;DHT22;7078;51.542;7.314;2023-07-31T09:17:32;17.00;99.90
14006;DHT22;7078;51.542;7.314;2023-07-31T09:20:17;17.10;99.90
14006;DHT22;7078;51.542;7.314;2023-07-31T09:22:44;17.10;99.90
14006;DHT22;7078;51.542;7.314;2023-07-31T09:25:18;17.20;99.90
14006;DHT22;7078;51.542;7.314;2023-07-31T09:27:51;17.20;99.90
14006;DHT22;7078;51.542;7.314;2023-07-31T09:30:17;17.10;99.90
14006;DHT22;7078;51.542;7.314;2023-07-31T09:32:44;17.10;99.90
14006;DHT22;7078;51.542;7.314;2023-07-31T09:35:28;17.20;99.90
14006;DHT22;7078;51.542;7.314;2023-07-31T09:37:57;17.10;99.90
14006;DHT22;7078;51.542;7.314;2023-07-31T09:40:36;17.10;99.90
14006;DHT22;7078;51.542;7.314;2023-07-31T09:43:07;17.20;99.90
14006;DHT22;7078;51.542;7.314;2023-07-31T09:45:43;17.10;99.90
14006;DHT22;7078;51.542;7.314;2023-07-31T09:48:13;17.10;99.90
14006;DHT22;7078;51.542;7.314;2023-07-31T09:50:46;17.10;99.90
14006;DHT22;7078;51.542;7.314;2023-07-31T09:53:13;17.20;99.90
14006;DHT22;7078;51.542;7.314;2023-07-31T09:55:39;17.20;99.90
14006;DHT22;7078;51.542;7.314;2023-07-31T09:58:07;17.20;99.90
14006;DHT22;7078;51.542;7.314;2023-07-31T10:00:33;17.60;99.90
14006;DHT22;7078;51.542;7.314;2023-07-31T10:03:00;17.60;99.90
14006;DHT22;7078;51.542;7.314;2023-07-31T10:05:53;17.60;99.90
14006;DHT22;7078;51.542;7.314;2023-07-31T10:08:21;17.50;99.90
14006;DHT22;7078;51.542;7.314;2023-07-31T10:10:49;17.50;99.90
14006;DHT22;7078;51.542;7.314;2023-07-31T10:13:15;17.50;99.90
14006;DHT22;7078;51.542;7.314;2023-07-31T10:15:42;17.50;99.90
14006;DHT22;7078;51.542;7.314;2023-07-31T10:18:09;17.60;99.90
14006;DHT22;7078;51.542;7.314;2023-07-31T10:20:35;17.50;99.90
14006;DHT22;7078;51.542;7.314;2023-07-31T10:23:01;17.50;99.90
14006;DHT22;7078;51.542;7.314;2023-07-31T10:25:27;17.50;99.90
14006;DHT22;7078;51.542;7.314;2023-07-31T10:27:54;17.60;99.90
14006;DHT22;7078;51.542;7.314;2023-07-31T10:30:23;17.60;99.90
14006;DHT22;7078;51.542;7.314;2023-07-31T10:32:51;17.60;99.90
14006;DHT22;7078;51.542;7.314;2023-07-31T10:35:17;17.60;99.90
14006;DHT22;7078;51.542;7.314;2023-07-31T10:37:43;17.60;99.90
14006;DHT22;7078;51.542;7.314;2023-07-31T10:42:38;17.60;99.90
14006;DHT22;7078;51.542;7.314;2023-07-31T10:45:08;17.70;99.90
14006;DHT22;7078;51.542;7.314;2023-07-31T10:47:38;17.50;99.90
14006;DHT22;7078;51.542;7.314;2023-07-31T10:50:15;17.50;99.90
14006;DHT22;7078;51.542;7.314;2023-07-31T10:53:02;17.40;99.90
14006;DHT22;7078;51.542;7.314;2023-07-31T10:55:42;17.30;99.90
14006;DHT22;7078;51.542;7.314;2023-07-31T10:58:10;17.20;99.90
14006;DHT22;7078;51.542;7.314;2023-07-31T11:00:38;17.20;99.90
14006;DHT22;7078;51.542;7.314;2023-07-31T11:03:04;17.20;99.90
14006;DHT22;7078;51.542;7.314;2023-07-31T11:05:50;17.20;99.90
14006;DHT22;7078;51.542;7.314;2023-07-31T11:10:46;17.10;99.90
14006;DHT22;7078;51.542;7.314;2023-07-31T11:13:13;17.10;99.90
14006;DHT22;7078;51.542;7.314;2023-07-31T11:15:38;17.20;99.90
14006;DHT22;7078;51.542;7.314;2023-07-31T11:18:04;17.20;99.90
14006;DHT22;7078;51.542;7.314;2023-07-31T11:20:34;17.10;99.90
14006;DHT22;7078;51.542;7.314;2023-07-31T11:23:07;17.20;99.90
14006;DHT22;7078;51.542;7.314;2023-07-31T11:25:33;17.20;99.90
14006;DHT22;7078;51.542;7.314;2023-07-31T11:28:07;17.30;99.90
14006;DHT22;7078;51.542;7.314;2023-07-31T11:30:33;17.40;99.90
14006;DHT22;7078;51.542;7.314;2023-07-31T11:33:01;17.40;99.90
14006;DHT22;7078;51.542;7.314;2023-07-31T11:35:29;17.50;99.90
14006;DHT22;7078;51.542;7.314;2023-07-31T11:37:54;17.50;99.90
14006;DHT22;7078;51.542;7.314;2023-07-31T11:40:20;17.50;99.90
14006;DHT22;7078;51.542;7.314;2023-07-31T11:42:46;17.60;99.90
14006;DHT22;7078;51.542;7.314;2023-07-31T11:45:11;17.80;99.90
14006;DHT22;7078;51.542;7.314;2023-07-31T11:47:37;17.90;99.90
14006;DHT22;7078;51.542;7.314;2023-07-31T11:50:04;18.10;99.90
14006;DHT22;7078;51.542;7.314;2023-07-31T11:52:35;18.00;99.90
14006;DHT22;7078;51.542;7.314;2023-07-31T11:55:02;18.00;99.90
14006;DHT22;7078;51.542;7.314;2023-07-31T11:57:28;18.10;99.90
14006;DHT22;7078;51.542;7.314;2023-07-31T11:59:55;18.20;99.90
14006;DHT22;7078;51.542;7.314;2023-07-31T12:02:21;18.40;99.90
14006;DHT22;7078;51.542;7.314;2023-07-31T12:04:47;18.50;99.90
14006;DHT22;7078;51.542;7.314;2023-07-31T12:07:13;18.50;99.90
14006;DHT22;7078;51.542;7.314;2023-07-31T12:09:51;18.60;99.90
14006;DHT22;7078;51.542;7.314;2023-07-31T12:12:20;18.80;99.90
14006;DHT22;7078;51.542;7.314;2023-07-31T12:14:46;18.70;99.90
14006;DHT22;7078;51.542;7.314;2023-07-31T12:17:12;19.10;99.90
14006;DHT22;7078;51.542;7.314;2023-07-31T12:19:37;19.10;99.90
14006;DHT22;7078;51.542;7.314;2023-07-31T12:22:11;19.30;99.90
14006;DHT22;7078;51.542;7.314;2023-07-31T12:24:39;19.10;99.90
14006;DHT22;7078;51.542;7.314;2023-07-31T12:27:10;19.10;99.90
14006;DHT22;7078;51.542;7.314;2023-07-31T12:29:36;19.00;99.90
14006;DHT22;7078;51.542;7.314;2023-07-31T12:32:01;19.00;99.90
14006;DHT22;7078;51.542;7.314;2023-07-31T12:34:27;18.90;99.90
14006;DHT22;7078;51.542;7.314;2023-07-31T12:36:53;18.70;99.90
14006;DHT22;7078;51.542;7.314;2023-07-31T12:39:19;18.60;99.90
14006;DHT22;7078;51.542;7.314;2023-07-31T12:41:44;18.40;99.90
14006;DHT22;7078;51.542;7.314;2023-07-31T12:44:10;18.40;99.90
14006;DHT22;7078;51.542;7.314;2023-07-31T12:46:35;18.40;99.90
14006;DHT22;7078;51.542;7.314;2023-07-31T12:49:01;18.20;99.90
14006;DHT22;7078;51.542;7.314;2023-07-31T12:51:27;18.10;99.90
14006;DHT22;7078;51.542;7.314;2023-07-31T12:53:53;18.10;99.90
14006;DHT22;7078;51.542;7.314;2023-07-31T12:56:18;18.00;99.90
14006;DHT22;7078;51.542;7.314;2023-07-31T12:58:44;18.10;99.90
14006;DHT22;7078;51.542;7.314;2023-07-31T13:01:09;18.20;99.90
14006;DHT22;7078;51.542;7.314;2023-07-31T13:03:35;18.20;99.90
14006;DHT22;7078;51.542;7.314;2023-07-31T13:06:01;18.20;99.90
14006;DHT22;7078;51.542;7.314;2023-07-31T13:08:26;18.10;99.90
14006;DHT22;7078;51.542;7.314;2023-07-31T13:10:52;18.20;99.90
14006;DHT22;7078;51.542;7.314;2023-07-31T13:13:17;18.30;99.90
14006;DHT22;7078;51.542;7.314;2023-07-31T13:15:44;18.30;99.90
14006;DHT22;7078;51.542;7.314;2023-07-31T13:18:10;18.40;99.90
14006;DHT22;7078;51.542;7.314;2023-07-31T13:20:35;18.40;99.90
14006;DHT22;7078;51.542;7.314;2023-07-31T13:23:01;18.50;99.90
14006;DHT22;7078;51.542;7.314;2023-07-31T13:25:26;18.50;99.90
14006;DHT22;7078;51.542;7.314;2023-07-31T13:27:52;18.50;99.90
14006;DHT22;7078;51.542;7.314;2023-07-31T13:30:18;18.50;99.90
14006;DHT22;7078;51.542;7.314;2023-07-31T13:32:44;18.50;99.90
14006;DHT22;7078;51.542;7.314;2023-07-31T13:35:09;18.60;99.90
14006;DHT22;7078;51.542;7.314;2023-07-31T13:37:36;18.60;99.90
14006;DHT22;7078;51.542;7.314;2023-07-31T13:40:02;18.60;99.90
14006;DHT22;7078;51.542;7.314;2023-07-31T13:42:30;18.60;99.90
14006;DHT22;7078;51.542;7.314;2023-07-31T13:44:56;18.70;99.90
14006;DHT22;7078;51.542;7.314;2023-07-31T13:47:21;18.90;99.90
14006;DHT22;7078;51.542;7.314;2023-07-31T13:49:47;18.70;99.90
14006;DHT22;7078;51.542;7.314;2023-07-31T13:52:12;18.80;99.90
14006;DHT22;7078;51.542;7.314;2023-07-31T13:54:38;18.80;99.90
14006;DHT22;7078;51.542;7.314;2023-07-31T13:57:04;18.70;99.90
14006;DHT22;7078;51.542;7.314;2023-07-31T13:59:29;18.70;99.90
14006;DHT22;7078;51.542;7.314;2023-07-31T14:01:55;18.80;99.90
14006;DHT22;7078;51.542;7.314;2023-07-31T14:04:20;18.60;99.90
14006;DHT22;7078;51.542;7.314;2023-07-31T14:06:46;18.70;99.90
14006;DHT22;7078;51.542;7.314;2023-07-31T14:09:13;18.70;99.90
14006;DHT22;7078;51.542;7.314;2023-07-31T14:11:39;18.80;99.90
14006;DHT22;7078;51.542;7.314;2023-07-31T14:14:05;19.00;99.90
14006;DHT22;7078;51.542;7.314;2023-07-31T14:16:30;19.10;99.90
14006;DHT22;7078;51.542;7.314;2023-07-31T14:18:56;19.20;99.90
14006;DHT22;7078;51.542;7.314;2023-07-31T14:21:25;19.30;99.90
14006;DHT22;7078;51.542;7.314;2023-07-31T14:23:50;19.30;99.90
14006;DHT22;7078;51.542;7.314;2023-07-31T14:26:16;19.30;99.90
14006;DHT22;7078;51.542;7.314;2023-07-31T14:28:42;19.40;99.90
14006;DHT22;7078;51.542;7.314;2023-07-31T14:31:07;19.50;99.90
14006;DHT22;7078;51.542;7.314;2023-07-31T14:33:33;19.70;99.90
14006;DHT22;7078;51.542;7.314;2023-07-31T14:35:59;20.00;99.90
14006;DHT22;7078;51.542;7.314;2023-07-31T14:38:24;20.10;99.90
14006;DHT22;7078;51.542;7.314;2023-07-31T14:40:51;20.20;99.90
14006;DHT22;7078;51.542;7.314;2023-07-31T14:43:16;20.20;99.90
14006;DHT22;7078;51.542;7.314;2023-07-31T14:45:42;20.30;99.90
14006;DHT22;7078;51.542;7.314;2023-07-31T14:48:08;20.30;99.90
14006;DHT22;7078;51.542;7.314;2023-07-31T14:50:33;20.30;99.90
14006;DHT22;7078;51.542;7.314;2023-07-31T14:52:59;20.10;99.90
14006;DHT22;7078;51.542;7.314;2023-07-31T14:55:25;19.90;99.90
14006;DHT22;7078;51.542;7.314;2023-07-31T14:57:51;19.70;99.90
14006;DHT22;7078;51.542;7.314;2023-07-31T15:00:16;19.60;99.90
14006;DHT22;7078;51.542;7.314;2023-07-31T15:02:42;19.40;99.90
14006;DHT22;7078;51.542;7.314;2023-07-31T15:05:08;19.40;99.90
14006;DHT22;7078;51.542;7.314;2023-07-31T15:07:34;19.30;99.90
14006;DHT22;7078;51.542;7.314;2023-07-31T15:10:00;19.30;99.90
14006;DHT22;7078;51.542;7.314;2023-07-31T15:12:26;19.30;99.90
14006;DHT22;7078;51.542;7.314;2023-07-31T15:14:52;19.10;99.90
14006;DHT22;7078;51.542;7.314;2023-07-31T15:17:18;19.20;99.90
14006;DHT22;7078;51.542;7.314;2023-07-31T15:19:44;19.20;99.90
14006;DHT22;7078;51.542;7.314;2023-07-31T15:22:10;19.30;99.90
14006;DHT22;7078;51.542;7.314;2023-07-31T15:24:35;19.10;99.90
14006;DHT22;7078;51.542;7.314;2023-07-31T15:27:01;19.00;99.90
14006;DHT22;7078;51.542;7.314;2023-07-31T15:29:28;19.00;99.90
14006;DHT22;7078;51.542;7.314;2023-07-31T15:31:54;19.00;99.90
14006;DHT22;7078;51.542;7.314;2023-07-31T15:34:20;19.00;99.90
14006;DHT22;7078;51.542;7.314;2023-07-31T15:36:46;18.90;99.90
14006;DHT22;7078;51.542;7.314;2023-07-31T15:39:11;18.90;99.90
14006;DHT22;7078;51.542;7.314;2023-07-31T15:41:38;18.80;99.90
14006;DHT22;7078;51.542;7.314;2023-07-31T15:44:04;18.80;99.90
14006;DHT22;7078;51.542;7.314;2023-07-31T15:46:30;18.70;99.90
14006;DHT22;7078;51.542;7.314;2023-07-31T15:48:56;18.70;99.90
14006;DHT22;7078;51.542;7.314;2023-07-31T15:51:23;18.90;99.90
14006;DHT22;7078;51.542;7.314;2023-07-31T15:53:49;18.80;99.90